Time;durP1;ratioP1;P1;durP2;ratioP2;P2;SDS_P1;SDS_P2;PMS_P1;PMS_P2;Temp;Humidity;BMP_temperature;BMP_pressure;BME280_temperature;BME280_humidity;BME280_pressure;Samples;Min_cycle;Max_cycle;Signal;HPM_P1;HPM_P2
2022/03/27 00:02:02;;;;;;;369.35;189.40;;;;;;;;;;7331666;19;154033;-16
2022/03/27 00:04:33;;;;;;;366.20;185.77;;;;;;;;;;7330681;19;161904;-14
2022/03/27 00:07:05;;;;;;;379.27;195.00;;;;;;;;;;7327605;19;162364;-14
2022/03/27 00:09:39;;;;;;;367.75;188.82;;;;;;;;;;7328209;19;154087;-14
2022/03/27 00:12:11;;;;;;;354.77;182.15;;;;;;;;;;7328104;19;153704;-16
2022/03/27 00:14:42;;;;;;;345.52;178.90;;;;;;;;;;7327818;19;161938;-14
2022/03/27 00:17:14;;;;;;;354.75;184.45;;;;;;;;;;7328231;19;162328;-15
2022/03/27 00:19:45;;;;;;;354.25;178.18;;;;;;;;;;7332814;19;154177;-14
2022/03/27 00:22:16;;;;;;;352.48;180.13;;;;;;;;;;7335491;19;153686;-16
2022/03/27 00:24:50;;;;;;;336.27;169.82;;;;;;;;;;7338341;19;162057;-14
2022/03/27 00:27:21;;;;;;;325.58;165.20;;;;;;;;;;7334464;19;162652;-15
2022/03/27 00:29:53;;;;;;;338.40;172.40;;;;;;;;;;7334652;19;153959;-15
2022/03/27 00:32:24;;;;;;;326.23;166.50;;;;;;;;;;7334460;19;153974;-16
2022/03/27 00:34:56;;;;;;;330.13;171.02;;;;;;;;;;7336425;19;161992;-14
2022/03/27 00:37:29;;;;;;;320.13;162.63;;;;;;;;;;7334109;19;162427;-15
2022/03/27 00:40:03;;;;;;;330.77;171.18;;;;;;;;;;7332602;19;154299;-15
2022/03/27 00:42:34;;;;;;;324.83;168.68;;;;;;;;;;7333932;19;153939;-14
2022/03/27 00:45:07;;;;;;;323.13;167.40;;;;;;;;;;7333585;19;161981;-14
2022/03/27 00:47:38;;;;;;;316.83;157.97;;;;;;;;;;7332498;19;162579;-16
2022/03/27 00:50:10;;;;;;;321.67;164.27;;;;;;;;;;7333945;19;154244;-14
2022/03/27 00:52:41;;;;;;;299.07;153.23;;;;;;;;;;7333977;19;154015;-14
2022/03/27 00:55:15;;;;;;;292.05;149.85;;;;;;;;;;7332129;19;162034;-14
2022/03/27 00:57:47;;;;;;;296.30;157.98;;;;;;;;;;7333314;19;162604;-14
2022/03/27 01:00:42;;;;;;;304.85;155.32;;;;;;;;;;7331790;19;153901;-15
2022/03/27 01:03:16;;;;;;;299.08;154.55;;;;;;;;;;7333670;19;153693;-15
2022/03/27 01:05:48;;;;;;;301.58;156.43;;;;;;;;;;7333347;19;161863;-15
2022/03/27 01:09:35;;;;;;;307.08;160.40;;;;;;;;;;7333144;19;162564;-14
2022/03/27 01:11:14;;;;;;;289.42;152.00;;;;;;;;;;7332972;19;154275;-15
2022/03/27 01:13:48;;;;;;;287.02;153.38;;;;;;;;;;7333189;19;153689;-14
2022/03/27 01:16:34;;;;;;;296.63;150.57;;;;;;;;;;7331768;19;161994;-14
2022/03/27 01:19:06;;;;;;;303.52;154.02;;;;;;;;;;7331156;19;162573;-15
2022/03/27 01:21:42;;;;;;;290.08;150.48;;;;;;;;;;7330584;19;153996;-14
2022/03/27 01:24:13;;;;;;;274.48;143.63;;;;;;;;;;7332725;19;153683;-14
2022/03/27 01:26:45;;;;;;;286.60;150.52;;;;;;;;;;7332473;19;162088;-15
2022/03/27 01:29:17;;;;;;;285.00;150.77;;;;;;;;;;7332422;19;162373;-16
2022/03/27 01:31:51;;;;;;;267.48;140.15;;;;;;;;;;7333035;19;154082;-15
2022/03/27 01:34:23;;;;;;;278.13;143.85;;;;;;;;;;7332791;19;153638;-15
2022/03/27 01:36:57;;;;;;;279.33;139.70;;;;;;;;;;7332177;19;161901;-14
2022/03/27 01:39:28;;;;;;;274.38;141.73;;;;;;;;;;7331707;19;162494;-16
2022/03/27 01:41:59;;;;;;;274.38;140.13;;;;;;;;;;7332517;19;153995;-14
2022/03/27 01:44:30;;;;;;;262.00;139.20;;;;;;;;;;7332334;19;154015;-14
2022/03/27 01:47:01;;;;;;;268.63;138.23;;;;;;;;;;7331850;19;161904;-14
2022/03/27 01:49:33;;;;;;;262.13;138.38;;;;;;;;;;7332858;19;162547;-14
2022/03/27 01:52:07;;;;;;;262.55;134.82;;;;;;;;;;7336532;19;153959;-15
2022/03/27 01:54:38;;;;;;;83.88;47.85;;;;;;;;;;7330679;19;153893;-14
2022/03/27 01:57:10;;;;;;;99.50;50.05;;;;;;;;;;7331592;19;161803;-15
2022/03/27 01:59:41;;;;;;;105.18;53.20;;;;;;;;;;7330758;19;162524;-16
2022/03/27 02:02:12;;;;;;;108.25;57.35;;;;;;;;;;7331745;19;154138;-14
2022/03/27 02:04:43;;;;;;;127.72;66.30;;;;;;;;;;7332046;19;153780;-14
2022/03/27 08:56:40;;;;;;;28.75;19.08;;;;;;;;;;7370744;19;132393;-13
2022/03/27 08:59:13;;;;;;;25.90;17.85;;;;;;;;;;7365462;19;153664;-13
2022/03/27 09:01:46;;;;;;;;;;;;;;;;;;7365150;19;161658;-15
2022/03/27 09:04:17;;;;;;;27.23;17.35;;;;;;;;;;7364230;19;162554;-14
2022/03/27 09:06:49;;;;;;;29.45;18.48;;;;;;;;;;7364855;19;154026;-14
2022/03/27 09:09:21;;;;;;;25.50;17.60;;;;;;;;;;7364866;19;153447;-14
2022/03/27 09:11:58;;;;;;;27.20;18.08;;;;;;;;;;7364472;19;162028;-13
2022/03/27 09:14:30;;;;;;;28.20;17.70;;;;;;;;;;7364372;19;162443;-14
2022/03/27 09:17:06;;;;;;;27.25;18.15;;;;;;;;;;7364870;19;154137;-13
2022/03/27 09:19:39;;;;;;;22.90;15.88;;;;;;;;;;7364756;19;153909;-15
2022/03/27 09:22:19;;;;;;;24.48;16.67;;;;;;;;;;7364165;19;161957;-14
2022/03/27 09:25:00;;;;;;;24.93;17.33;;;;;;;;;;7363470;19;162300;-13
2022/03/27 09:27:36;;;;;;;25.77;16.85;;;;;;;;;;7364379;19;154050;-13
2022/03/27 09:30:11;;;;;;;23.17;15.65;;;;;;;;;;7364319;19;153996;-14
2022/03/27 09:32:47;;;;;;;25.42;16.85;;;;;;;;;;7364020;19;161943;-15
2022/03/27 09:35:21;;;;;;;26.05;17.30;;;;;;;;;;7363812;19;162268;-13
2022/03/27 09:37:52;;;;;;;25.17;16.98;;;;;;;;;;7364279;19;154197;-15
2022/03/27 09:40:23;;;;;;;24.60;16.48;;;;;;;;;;7363954;19;153849;-12
2022/03/27 09:43:14;;;;;;;22.60;14.98;;;;;;;;;;7362417;19;161903;-14
2022/03/27 09:45:58;;;;;;;23.33;15.45;;;;;;;;;;7361672;19;162554;-14
2022/03/27 09:48:31;;;;;;;26.65;16.33;;;;;;;;;;7366871;19;153870;-13
2022/03/27 09:51:03;;;;;;;;;;;;;;;;;;7367165;19;153576;-14
2022/03/27 09:53:36;;;;;;;21.25;14.57;;;;;;;;;;7363419;19;162209;-13
2022/03/27 09:56:20;;;;;;;20.38;12.88;;;;;;;;;;7352759;19;162667;-14
2022/03/27 09:58:54;;;;;;;29.83;13.38;;;;;;;;;;7334716;19;153710;-15
2022/03/27 10:01:26;;;;;;;21.55;13.10;;;;;;;;;;7334452;19;153717;-13
2022/03/27 10:04:03;;;;;;;16.47;11.20;;;;;;;;;;7333928;19;161770;-14
2022/03/27 10:06:36;;;;;;;19.13;11.25;;;;;;;;;;7331857;19;162506;-13
2022/03/27 10:09:09;;;;;;;17.17;10.55;;;;;;;;;;7335360;19;154002;-13
2022/03/27 10:11:43;;;;;;;21.08;12.13;;;;;;;;;;7337170;19;153835;-14
2022/03/27 10:14:18;;;;;;;17.05;12.60;;;;;;;;;;7333572;19;162037;-13
2022/03/27 10:16:51;;;;;;;25.58;11.68;;;;;;;;;;7334768;19;162277;-14
2022/03/27 10:19:32;;;;;;;20.23;12.30;;;;;;;;;;7335999;19;153779;-13
2022/03/27 10:22:08;;;;;;;21.45;12.07;;;;;;;;;;7333329;19;153912;-15
2022/03/27 10:24:42;;;;;;;19.60;11.60;;;;;;;;;;7336629;19;162000;-13
2022/03/27 10:27:17;;;;;;;20.08;11.82;;;;;;;;;;7330955;19;162447;-13
2022/03/27 10:29:51;;;;;;;21.20;12.30;;;;;;;;;;7333905;19;154077;-14
2022/03/27 10:32:23;;;;;;;17.58;11.85;;;;;;;;;;7333568;19;153785;-14
2022/03/27 10:35:22;;;;;;;16.38;12.13;;;;;;;;;;7332372;19;161505;-14
2022/03/27 10:38:01;;;;;;;18.50;12.05;;;;;;;;;;7335093;19;162612;-14
2022/03/27 10:40:41;;;;;;;18.13;11.25;;;;;;;;;;7333424;19;154115;-15
2022/03/27 10:43:22;;;;;;;17.17;11.10;;;;;;;;;;7333310;19;153579;-14
2022/03/27 10:46:18;;;;;;;17.88;11.45;;;;;;;;;;7331790;19;161942;-13
2022/03/27 10:48:51;;;;;;;17.13;11.10;;;;;;;;;;7332763;19;162132;-16
2022/03/27 10:51:36;;;;;;;;;;;;;;;;;;7333773;19;153738;-14
2022/03/27 10:54:09;;;;;;;15.85;10.48;;;;;;;;;;7333260;19;153379;-15
2022/03/27 10:56:43;;;;;;;18.02;11.10;;;;;;;;;;7332790;19;161873;-13
2022/03/27 10:59:17;;;;;;;15.65;10.57;;;;;;;;;;7332596;19;162303;-14
2022/03/27 11:01:53;;;;;;;16.10;10.23;;;;;;;;;;7332779;19;153944;-14
2022/03/27 11:04:38;;;;;;;19.52;10.93;;;;;;;;;;7332817;19;153603;-14
2022/03/27 11:07:22;;;;;;;19.73;10.40;;;;;;;;;;7329440;19;162267;-14
2022/03/27 11:09:53;;;;;;;18.10;10.40;;;;;;;;;;7331495;19;162354;-14
2022/03/27 11:12:31;;;;;;;15.80;10.32;;;;;;;;;;7333794;19;154129;-13
2022/03/27 11:15:06;;;;;;;13.90;9.57;;;;;;;;;;7335862;19;153713;-13
2022/03/27 11:17:49;;;;;;;14.70;10.57;;;;;;;;;;7332135;19;161833;-15
2022/03/27 11:20:57;;;;;;;14.73;10.25;;;;;;;;;;7332018;19;162429;-13
2022/03/27 11:23:31;;;;;;;14.25;10.35;;;;;;;;;;7332337;19;154094;-17
2022/03/27 11:26:07;;;;;;;15.63;10.50;;;;;;;;;;7331584;19;153710;-15
2022/03/27 11:28:51;;;;;;;14.65;10.25;;;;;;;;;;7330712;19;161925;-15
2022/03/27 11:31:29;;;;;;;16.75;10.32;;;;;;;;;;7330727;19;162610;-15
2022/03/27 11:34:26;;;;;;;13.32;9.43;;;;;;;;;;7332053;19;153929;-15
2022/03/27 11:37:25;;;;;;;16.77;10.27;;;;;;;;;;7331993;19;153523;-15
2022/03/27 11:39:57;;;;;;;14.57;9.18;;;;;;;;;;7331295;19;161885;-16
2022/03/27 11:42:31;;;;;;;16.90;10.45;;;;;;;;;;7331913;19;162461;-15
2022/03/27 11:45:17;;;;;;;16.42;9.93;;;;;;;;;;7336023;19;153916;-16
2022/03/27 11:47:53;;;;;;;12.48;9.13;;;;;;;;;;7328840;19;153636;-16
2022/03/27 11:50:31;;;;;;;14.35;9.40;;;;;;;;;;7331149;19;162213;-15
2022/03/27 11:53:05;;;;;;;12.15;9.07;;;;;;;;;;7329895;19;162381;-15
2022/03/27 11:55:39;;;;;;;12.07;9.32;;;;;;;;;;7329685;19;153965;-15
2022/03/27 11:58:11;;;;;;;16.40;9.73;;;;;;;;;;7330072;19;153717;-16
2022/03/27 12:00:44;;;;;;;13.75;8.55;;;;;;;;;;7330657;19;162025;-15
2022/03/27 12:03:22;;;;;;;12.00;9.52;;;;;;;;;;7330561;19;163630;-15
2022/03/27 12:05:56;;;;;;;15.23;9.27;;;;;;;;;;7330847;19;154164;-16
2022/03/27 12:08:35;;;;;;;15.50;9.35;;;;;;;;;;7330545;19;153552;-15
2022/03/27 12:11:09;;;;;;;13.73;9.38;;;;;;;;;;7330108;19;162487;-15
2022/03/27 12:13:42;;;;;;;18.90;10.15;;;;;;;;;;7333377;19;162345;-15
2022/03/27 12:16:20;;;;;;;15.63;10.48;;;;;;;;;;7334171;19;154103;-15
2022/03/27 12:18:52;;;;;;;14.55;9.15;;;;;;;;;;7328805;19;153758;-15
2022/03/27 12:21:26;;;;;;;16.63;9.52;;;;;;;;;;7334048;19;162131;-15
2022/03/27 12:24:02;;;;;;;12.73;8.95;;;;;;;;;;7330011;19;162407;-15
2022/03/27 12:32:12;;;;;;;10.23;8.95;;;;;;;;;;7329880;19;162102;-15
2022/03/27 12:34:46;;;;;;;10.77;8.50;;;;;;;;;;7329963;19;162326;-16
2022/03/27 12:37:22;;;;;;;15.50;9.73;;;;;;;;;;7329996;19;153961;-15
2022/03/27 12:40:06;;;;;;;12.30;9.65;;;;;;;;;;7330954;19;153594;-15
2022/03/27 12:42:40;;;;;;;11.65;9.35;;;;;;;;;;7328154;19;162897;-14
2022/03/27 12:45:13;;;;;;;10.50;8.65;;;;;;;;;;7329424;19;162439;-15
2022/03/27 12:47:46;;;;;;;12.05;8.85;;;;;;;;;;7328054;19;154298;-13
2022/03/27 12:50:32;;;;;;;11.20;8.55;;;;;;;;;;7329665;19;154085;-13
2022/03/27 12:53:08;;;;;;;14.82;9.25;;;;;;;;;;7329133;19;161755;-14
2022/03/27 12:55:48;;;;;;;11.13;9.00;;;;;;;;;;7327236;19;162041;-14
2022/03/27 12:58:21;;;;;;;10.18;7.43;;;;;;;;;;7329412;19;154006;-15
2022/03/27 13:01:07;;;;;;;10.90;8.35;;;;;;;;;;7331853;19;153532;-15
2022/03/27 13:03:39;;;;;;;9.20;7.60;;;;;;;;;;7330578;19;162090;-15
2022/03/27 13:06:12;;;;;;;9.88;8.27;;;;;;;;;;7328518;19;162553;-15
2022/03/27 13:09:02;;;;;;;9.82;8.15;;;;;;;;;;7326147;19;153979;-15
2022/03/27 13:11:40;;;;;;;13.82;8.40;;;;;;;;;;7329167;19;153433;-15
2022/03/27 13:14:14;;;;;;;12.05;8.55;;;;;;;;;;7328556;19;161903;-15
2022/03/27 13:16:49;;;;;;;10.90;8.05;;;;;;;;;;7329170;19;162481;-16
2022/03/27 13:19:23;;;;;;;10.07;7.90;;;;;;;;;;7328542;19;154176;-16
2022/03/27 13:21:56;;;;;;;10.63;7.68;;;;;;;;;;7328989;19;153641;-16
2022/03/27 13:24:33;;;;;;;10.55;8.07;;;;;;;;;;7328169;19;161812;-15
2022/03/27 13:27:07;;;;;;;8.82;7.93;;;;;;;;;;7327424;19;162122;-15
2022/03/27 13:29:39;;;;;;;10.68;8.70;;;;;;;;;;7329209;19;154774;-16
2022/03/27 13:32:11;;;;;;;9.18;7.40;;;;;;;;;;7332606;19;153544;-14
2022/03/27 13:34:42;;;;;;;10.88;8.50;;;;;;;;;;7333660;19;162505;-15
2022/03/27 13:37:13;;;;;;;11.05;7.97;;;;;;;;;;7336161;19;162651;-16
2022/03/27 13:39:49;;;;;;;10.02;7.47;;;;;;;;;;7338168;19;154224;-15
2022/03/27 13:45:04;;;;;;;10.07;7.88;;;;;;;;;;7337396;19;161924;-14
2022/03/27 13:47:35;;;;;;;10.02;7.97;;;;;;;;;;7336454;19;162481;-14
2022/03/27 13:50:07;;;;;;;12.38;7.70;;;;;;;;;;7336563;19;154416;-15
2022/03/27 13:52:39;;;;;;;11.02;7.50;;;;;;;;;;7336842;19;153479;-14
2022/03/27 13:55:13;;;;;;;10.10;8.02;;;;;;;;;;7336013;19;161756;-14
2022/03/27 13:57:44;;;;;;;9.13;7.75;;;;;;;;;;7334003;19;162321;-14
2022/03/27 14:00:17;;;;;;;9.55;7.13;;;;;;;;;;7334493;19;153955;-14
2022/03/27 14:02:48;;;;;;;7.43;6.60;;;;;;;;;;7338422;19;153526;-16
2022/03/27 14:05:20;;;;;;;10.40;8.00;;;;;;;;;;7333952;19;162075;-15
2022/03/27 14:07:51;;;;;;;9.38;8.13;;;;;;;;;;7331318;19;162563;-15
2022/03/27 14:10:26;;;;;;;9.20;8.00;;;;;;;;;;7333939;19;154205;-14
2022/03/27 14:12:57;;;;;;;11.35;8.27;;;;;;;;;;7333833;19;153626;-15
2022/03/27 14:15:28;;;;;;;10.48;7.10;;;;;;;;;;7333564;19;161777;-20
2022/03/27 14:18:02;;;;;;;11.32;6.82;;;;;;;;;;7335693;19;162322;-14
2022/03/27 14:20:34;;;;;;;9.43;7.07;;;;;;;;;;7333727;19;154152;-15
2022/03/27 14:23:05;;;;;;;8.70;6.82;;;;;;;;;;7333799;19;153648;-15
2022/03/27 14:25:39;;;;;;;9.10;6.60;;;;;;;;;;7333556;19;161843;-16
2022/03/27 14:28:10;;;;;;;11.70;7.55;;;;;;;;;;7332701;19;162448;-14
2022/03/27 14:30:41;;;;;;;9.50;7.40;;;;;;;;;;7334702;19;154004;-14
2022/03/27 14:33:12;;;;;;;9.45;7.32;;;;;;;;;;7336279;19;153659;-15
2022/03/27 14:35:46;;;;;;;9.07;7.18;;;;;;;;;;7332837;19;161793;-16
2022/03/27 14:38:16;;;;;;;;;;;;;;;;;;7333419;19;162590;-15
2022/03/27 14:40:50;;;;;;;9.23;6.93;;;;;;;;;;7333168;19;154120;-15
2022/03/27 14:43:22;;;;;;;9.52;7.18;;;;;;;;;;7336263;19;153329;-15
2022/03/27 14:45:54;;;;;;;8.98;6.82;;;;;;;;;;7332512;19;162187;-15
2022/03/27 14:48:25;;;;;;;10.23;6.95;;;;;;;;;;7331786;19;162395;-14
2022/03/27 14:50:57;;;;;;;11.15;7.28;;;;;;;;;;7331528;19;154287;-15
2022/03/27 14:53:31;;;;;;;9.82;7.30;;;;;;;;;;7332660;19;153489;-15
2022/03/27 14:56:03;;;;;;;7.85;7.05;;;;;;;;;;7329908;19;161838;-15
2022/03/27 14:58:35;;;;;;;8.37;6.93;;;;;;;;;;7334775;19;162351;-14
2022/03/27 15:01:08;;;;;;;9.70;6.53;;;;;;;;;;7334549;19;153886;-15
2022/03/27 15:03:40;;;;;;;;;;;;;;;;;;7336532;19;154693;-16
2022/03/27 15:06:11;;;;;;;8.77;6.85;;;;;;;;;;7335018;19;161788;-15
2022/03/27 15:08:43;;;;;;;7.85;6.45;;;;;;;;;;7334077;19;162355;-15
2022/03/27 15:11:18;;;;;;;8.38;6.85;;;;;;;;;;7334880;19;154451;-15
2022/03/27 15:13:50;;;;;;;7.35;6.55;;;;;;;;;;7335367;19;153568;-13
2022/03/27 15:16:21;;;;;;;9.10;6.65;;;;;;;;;;7333040;19;161769;-14
2022/03/27 15:18:53;;;;;;;8.57;5.97;;;;;;;;;;7332632;19;162347;-15
2022/03/27 15:21:24;;;;;;;7.38;6.63;;;;;;;;;;7334637;19;153954;-14
2022/03/27 15:23:55;;;;;;;10.85;7.40;;;;;;;;;;7336651;19;153822;-15
2022/03/27 15:26:29;;;;;;;10.63;7.20;;;;;;;;;;7331328;19;162101;-15
2022/03/27 15:29:00;;;;;;;8.43;6.97;;;;;;;;;;7330238;19;162419;-15
2022/03/27 15:31:32;;;;;;;6.85;5.88;;;;;;;;;;7331769;19;153949;-15
2022/03/27 15:34:04;;;;;;;9.03;6.60;;;;;;;;;;7331510;19;153552;-14
2022/03/27 15:36:35;;;;;;;7.32;6.57;;;;;;;;;;7330981;19;161741;-15
2022/03/27 15:39:06;;;;;;;6.97;6.20;;;;;;;;;;7334113;19;162389;-16
2022/03/27 15:41:40;;;;;;;6.75;5.60;;;;;;;;;;7334127;19;154093;-14
2022/03/27 15:44:15;;;;;;;8.95;6.43;;;;;;;;;;7334134;19;154028;-15
2022/03/27 15:46:46;;;;;;;6.85;6.18;;;;;;;;;;7334561;19;161985;-14
2022/03/27 15:49:19;;;;;;;6.30;5.50;;;;;;;;;;7332439;19;162430;-14
2022/03/27 15:51:51;;;;;;;8.63;5.97;;;;;;;;;;7334521;19;154193;-15
2022/03/27 15:54:22;;;;;;;9.63;5.90;;;;;;;;;;7332668;19;153581;-15
2022/03/27 15:56:56;;;;;;;12.70;7.13;;;;;;;;;;7334471;19;162344;-14
2022/03/27 15:59:29;;;;;;;8.63;6.53;;;;;;;;;;7333163;19;162556;-15
2022/03/27 16:02:00;;;;;;;;;;;;;;;;;;7334641;19;153934;-15
2022/03/27 16:04:31;;;;;;;9.93;5.97;;;;;;;;;;7333778;19;153461;-15
2022/03/27 16:07:03;;;;;;;9.13;6.70;;;;;;;;;;7332171;19;161847;-15
2022/03/27 16:09:34;;;;;;;7.22;6.25;;;;;;;;;;7332220;19;162622;-15
2022/03/27 16:12:09;;;;;;;9.38;6.07;;;;;;;;;;7330607;19;154109;-15
2022/03/27 16:14:41;;;;;;;6.43;5.82;;;;;;;;;;7330637;19;153664;-16
2022/03/27 16:17:13;;;;;;;6.55;5.30;;;;;;;;;;7334283;19;162813;-15
2022/03/27 16:19:45;;;;;;;6.22;5.63;;;;;;;;;;7331865;19;162794;-14
2022/03/27 16:22:16;;;;;;;7.63;5.55;;;;;;;;;;7330413;19;153961;-15
2022/03/27 16:24:47;;;;;;;7.07;5.75;;;;;;;;;;7330363;19;153483;-15
2022/03/27 16:27:21;;;;;;;8.32;5.68;;;;;;;;;;7329771;19;161813;-16
2022/03/27 16:29:52;;;;;;;5.97;5.38;;;;;;;;;;7328706;19;162402;-15
2022/03/27 16:32:24;;;;;;;10.88;6.05;;;;;;;;;;7331698;19;154053;-15
2022/03/27 16:34:56;;;;;;;8.13;6.00;;;;;;;;;;7333963;19;153703;-15
2022/03/27 16:37:27;;;;;;;10.23;6.30;;;;;;;;;;7331687;19;161954;-15
2022/03/27 16:39:58;;;;;;;8.65;5.75;;;;;;;;;;7329287;19;162385;-15
2022/03/27 16:42:32;;;;;;;6.95;5.63;;;;;;;;;;7330092;19;154072;-15
2022/03/27 16:45:04;;;;;;;7.22;5.95;;;;;;;;;;7329700;19;153698;-15
2022/03/27 16:47:35;;;;;;;6.43;5.50;;;;;;;;;;7329117;19;161969;-14
2022/03/27 16:50:08;;;;;;;7.70;5.55;;;;;;;;;;7328050;19;162757;-15
2022/03/27 16:52:39;;;;;;;7.40;5.90;;;;;;;;;;7328392;19;154003;-16
2022/03/27 16:55:11;;;;;;;6.97;5.43;;;;;;;;;;7327843;19;153774;-16
2022/03/27 16:57:45;;;;;;;7.10;5.50;;;;;;;;;;7328904;19;162079;-14
2022/03/27 17:00:19;;;;;;;7.30;5.25;;;;;;;;;;7328785;19;162684;-15
2022/03/27 17:02:50;;;;;;;6.10;5.50;;;;;;;;;;7329113;19;153983;-15
2022/03/27 17:05:21;;;;;;;6.80;5.20;;;;;;;;;;7328971;19;153601;-15
2022/03/27 17:07:52;;;;;;;6.95;5.93;;;;;;;;;;7336772;19;161938;-14
2022/03/27 17:10:24;;;;;;;7.15;5.57;;;;;;;;;;7337652;19;162706;-15
2022/03/27 17:12:58;;;;;;;7.03;5.68;;;;;;;;;;7338740;19;153949;-16
2022/03/27 17:15:29;;;;;;;6.13;5.38;;;;;;;;;;7339132;19;153501;-15
2022/03/27 17:18:00;;;;;;;6.13;5.53;;;;;;;;;;7338298;19;162199;-14
2022/03/27 17:20:31;;;;;;;6.57;5.78;;;;;;;;;;7338484;19;162320;-15
2022/03/27 17:23:03;;;;;;;6.10;5.57;;;;;;;;;;7338440;19;154286;-15
2022/03/27 17:25:34;;;;;;;6.55;5.22;;;;;;;;;;7337135;19;153553;-16
2022/03/27 17:28:08;;;;;;;5.38;4.88;;;;;;;;;;7338993;19;161838;-14
2022/03/27 17:30:41;;;;;;;5.57;4.93;;;;;;;;;;7334280;19;162387;-15
2022/03/27 17:33:15;;;;;;;5.72;4.72;;;;;;;;;;7336430;19;154200;-14
2022/03/27 17:35:46;;;;;;;6.82;5.38;;;;;;;;;;7337196;19;153606;-15
2022/03/27 17:38:20;;;;;;;6.45;5.55;;;;;;;;;;7337528;19;161980;-15
2022/03/27 17:40:52;;;;;;;6.10;5.35;;;;;;;;;;7336241;19;162531;-13
2022/03/27 17:43:26;;;;;;;7.82;5.43;;;;;;;;;;7336909;19;154065;-15
2022/03/27 17:45:57;;;;;;;6.20;5.10;;;;;;;;;;7338419;19;153581;-15
2022/03/27 17:48:29;;;;;;;5.53;5.03;;;;;;;;;;7337928;19;162177;-14
2022/03/27 17:51:00;;;;;;;6.10;4.90;;;;;;;;;;7332074;19;162602;-15
2022/03/27 17:53:34;;;;;;;6.78;5.50;;;;;;;;;;7334804;19;154023;-14
2022/03/27 17:56:06;;;;;;;8.32;5.20;;;;;;;;;;7332008;19;153614;-15
2022/03/27 17:58:40;;;;;;;5.50;4.85;;;;;;;;;;7338007;19;161825;-13
2022/03/27 18:01:11;;;;;;;4.60;4.20;;;;;;;;;;7335713;19;162629;-15
2022/03/27 18:03:43;;;;;;;5.30;4.80;;;;;;;;;;7336355;19;154108;-14
2022/03/27 18:06:14;;;;;;;6.18;4.80;;;;;;;;;;7334294;19;153552;-14
2022/03/27 18:08:45;;;;;;;5.50;4.65;;;;;;;;;;7335177;19;161921;-15
2022/03/27 18:11:16;;;;;;;5.47;4.65;;;;;;;;;;7336157;19;162619;-14
2022/03/27 18:13:50;;;;;;;6.63;4.80;;;;;;;;;;7337111;19;154117;-16
2022/03/27 18:16:22;;;;;;;6.43;5.20;;;;;;;;;;7337279;19;153506;-15
2022/03/27 18:18:53;;;;;;;5.47;4.78;;;;;;;;;;7334802;19;161850;-16
2022/03/27 18:21:24;;;;;;;5.10;4.60;;;;;;;;;;7335096;19;162321;-15
2022/03/27 18:23:56;;;;;;;5.25;4.75;;;;;;;;;;7336655;19;154258;-14
2022/03/27 18:26:27;;;;;;;6.53;4.53;;;;;;;;;;7337023;19;153532;-19
2022/03/27 18:29:03;;;;;;;5.35;4.63;;;;;;;;;;7336612;19;161952;-15
2022/03/27 18:31:34;;;;;;;5.15;4.22;;;;;;;;;;7333182;19;162381;-16
2022/03/27 18:34:05;;;;;;;4.90;4.50;;;;;;;;;;7337758;19;154155;-15
2022/03/27 18:36:37;;;;;;;5.35;4.70;;;;;;;;;;7333229;19;153687;-13
2022/03/27 18:39:09;;;;;;;5.97;5.28;;;;;;;;;;7332926;19;161628;-12
2022/03/27 18:41:41;;;;;;;5.30;4.78;;;;;;;;;;7332867;19;162320;-16
2022/03/27 18:44:15;;;;;;;6.60;5.25;;;;;;;;;;7333355;19;154089;-17
2022/03/27 18:46:46;;;;;;;6.47;4.55;;;;;;;;;;7333024;19;153687;-15
2022/03/27 18:49:18;;;;;;;7.45;5.57;;;;;;;;;;7332762;19;161954;-15
2022/03/27 18:51:49;;;;;;;6.55;4.85;;;;;;;;;;7331433;19;162549;-15
2022/03/27 18:54:21;;;;;;;6.63;5.13;;;;;;;;;;7333295;19;154038;-16
2022/03/27 18:56:53;;;;;;;6.57;4.65;;;;;;;;;;7335907;19;153482;-16
2022/03/27 18:59:27;;;;;;;5.55;4.80;;;;;;;;;;7334491;19;161853;-17
2022/03/27 19:01:58;;;;;;;9.68;5.00;;;;;;;;;;7331938;19;162592;-16
2022/03/27 19:04:29;;;;;;;7.72;5.25;;;;;;;;;;7332458;19;154708;-15
2022/03/27 19:07:01;;;;;;;11.65;6.95;;;;;;;;;;7332344;19;153552;-15
2022/03/27 19:09:32;;;;;;;11.98;7.53;;;;;;;;;;7333078;19;162064;-17
2022/03/27 19:12:05;;;;;;;11.00;7.15;;;;;;;;;;7329593;19;162483;-15
2022/03/27 19:14:41;;;;;;;7.97;6.65;;;;;;;;;;7332781;19;154012;-15
2022/03/27 19:17:45;;;;;;;6.55;5.05;;;;;;;;;;7331937;19;153617;-16
2022/03/27 19:20:24;;;;;;;8.73;5.70;;;;;;;;;;7326904;19;161910;-15
2022/03/27 19:23:04;;;;;;;5.70;5.20;;;;;;;;;;7330597;19;162354;-16
2022/03/27 19:25:36;;;;;;;8.52;6.30;;;;;;;;;;7331991;19;153980;-15
2022/03/27 19:28:09;;;;;;;7.15;5.65;;;;;;;;;;7330293;19;153739;-16
2022/03/27 19:30:44;;;;;;;7.82;5.35;;;;;;;;;;7332787;19;162003;-16
2022/03/27 19:33:17;;;;;;;8.38;5.38;;;;;;;;;;7331975;19;162367;-16
2022/03/27 19:35:49;;;;;;;7.25;5.53;;;;;;;;;;7335519;19;154100;-16
2022/03/27 19:38:21;;;;;;;8.27;6.10;;;;;;;;;;7331446;19;153614;-15
2022/03/27 19:40:52;;;;;;;8.13;5.53;;;;;;;;;;7330868;19;161797;-14
2022/03/27 19:43:24;;;;;;;6.60;5.95;;;;;;;;;;7330773;19;162481;-13
2022/03/27 19:45:59;;;;;;;7.00;5.40;;;;;;;;;;7330859;19;154287;-16
2022/03/27 19:48:31;;;;;;;10.43;6.07;;;;;;;;;;7334311;19;153490;-14
2022/03/27 19:51:06;;;;;;;5.53;4.90;;;;;;;;;;7330653;19;161837;-15
2022/03/27 19:53:39;;;;;;;11.60;8.25;;;;;;;;;;7327941;19;162430;-14
2022/03/27 19:56:11;;;;;;;6.78;5.40;;;;;;;;;;7328542;19;154034;-14
2022/03/27 19:58:42;;;;;;;8.20;5.13;;;;;;;;;;7331043;19;153902;-16
2022/03/27 20:01:16;;;;;;;6.68;5.28;;;;;;;;;;7330529;19;162036;-14
2022/03/27 20:03:48;;;;;;;8.48;5.53;;;;;;;;;;7332720;19;162498;-15
2022/03/27 20:06:19;;;;;;;7.35;5.43;;;;;;;;;;7332942;19;154171;-15
2022/03/27 20:08:54;;;;;;;16.60;8.05;;;;;;;;;;7335918;19;153482;-14
2022/03/27 20:11:27;;;;;;;19.55;10.38;;;;;;;;;;7324715;19;162081;-17
2022/03/27 20:13:59;;;;;;;13.57;7.67;;;;;;;;;;7329833;19;162750;-15
2022/03/27 20:16:33;;;;;;;10.70;6.60;;;;;;;;;;7329855;19;154062;-15
2022/03/27 20:19:04;;;;;;;11.48;7.22;;;;;;;;;;7335055;19;153569;-16
2022/03/27 20:21:37;;;;;;;11.15;7.25;;;;;;;;;;7330151;19;162217;-16
2022/03/27 20:24:08;;;;;;;;;;;;;;;;;;7334458;19;162572;-17
2022/03/27 20:26:39;;;;;;;13.43;6.65;;;;;;;;;;7334007;19;154119;-17
2022/03/27 20:29:11;;;;;;;15.43;6.40;;;;;;;;;;7331520;19;153792;-14
2022/03/27 20:31:45;;;;;;;9.70;6.03;;;;;;;;;;7332588;19;161788;-15
2022/03/27 20:34:16;;;;;;;10.07;5.80;;;;;;;;;;7329778;19;162358;-15
2022/03/27 20:36:47;;;;;;;9.07;6.30;;;;;;;;;;7332765;19;154150;-15
2022/03/27 20:39:19;;;;;;;11.45;6.57;;;;;;;;;;7332622;19;153646;-14
2022/03/27 20:41:50;;;;;;;10.73;6.05;;;;;;;;;;7331977;19;161826;-14
2022/03/27 20:44:21;;;;;;;6.75;6.03;;;;;;;;;;7332229;19;162371;-16
2022/03/27 20:46:56;;;;;;;9.50;6.40;;;;;;;;;;7331260;19;154051;-15
2022/03/27 20:49:30;;;;;;;6.50;5.90;;;;;;;;;;7332214;19;153666;-14
2022/03/27 20:52:02;;;;;;;9.93;5.80;;;;;;;;;;7330751;19;161987;-15
2022/03/27 20:54:33;;;;;;;6.32;5.43;;;;;;;;;;7331591;19;162418;-16
2022/03/27 20:57:05;;;;;;;6.15;5.32;;;;;;;;;;7332374;19;154063;-15
2022/03/27 20:59:37;;;;;;;9.13;6.03;;;;;;;;;;7330560;19;153547;-14
2022/03/27 21:02:11;;;;;;;9.85;5.80;;;;;;;;;;7331780;19;161806;-14
2022/03/27 21:04:42;;;;;;;9.32;6.60;;;;;;;;;;7331409;19;162443;-15
2022/03/27 21:07:13;;;;;;;7.03;5.55;;;;;;;;;;7331805;19;154080;-14
2022/03/27 21:09:44;;;;;;;12.43;7.53;;;;;;;;;;7331128;19;153906;-13
2022/03/27 21:12:16;;;;;;;11.10;5.80;;;;;;;;;;7331141;19;161939;-15
2022/03/27 21:14:47;;;;;;;9.88;6.60;;;;;;;;;;7330386;19;162370;-14
2022/03/27 21:17:21;;;;;;;8.70;5.60;;;;;;;;;;7331238;19;154095;-14
2022/03/27 21:19:52;;;;;;;8.15;6.20;;;;;;;;;;7331040;19;153595;-15
2022/03/27 21:22:23;;;;;;;9.60;6.03;;;;;;;;;;7331072;19;161817;-14
2022/03/27 21:24:55;;;;;;;7.93;5.43;;;;;;;;;;7330357;19;162449;-15
2022/03/27 21:27:26;;;;;;;8.40;5.80;;;;;;;;;;7330218;19;153983;-14
2022/03/27 21:29:57;;;;;;;8.77;6.25;;;;;;;;;;7331046;19;153554;-13
2022/03/27 21:32:31;;;;;;;8.65;5.80;;;;;;;;;;7330522;19;161844;-14
2022/03/27 21:35:02;;;;;;;8.55;5.95;;;;;;;;;;7330636;19;162344;-14
2022/03/27 21:37:34;;;;;;;7.88;5.57;;;;;;;;;;7330242;19;154059;-15
2022/03/27 21:40:06;;;;;;;7.57;5.05;;;;;;;;;;7330320;19;153487;-15
2022/03/27 21:42:37;;;;;;;9.00;6.03;;;;;;;;;;7330433;19;162023;-15
2022/03/27 21:45:10;;;;;;;12.57;5.55;;;;;;;;;;7330086;19;162378;-14
2022/03/27 21:47:44;;;;;;;7.93;5.57;;;;;;;;;;7326467;19;154235;-14
2022/03/27 21:50:17;;;;;;;9.07;5.82;;;;;;;;;;7327134;19;153600;-14
2022/03/27 21:52:48;;;;;;;8.73;5.97;;;;;;;;;;7329772;19;162482;-14
2022/03/27 21:55:19;;;;;;;6.70;5.38;;;;;;;;;;7331343;19;162777;-14